Time;durP1;ratioP1;P1;durP2;ratioP2;P2;SDS_P1;SDS_P2;PMS_P1;PMS_P2;Temp;Humidity;BMP_temperature;BMP_pressure;BME280_temperature;BME280_humidity;BME280_pressure;Samples;Min_cycle;Max_cycle;Signal;HPM_P1;HPM_P2
2022/01/09 00:01:48;;;;;;;1.50;1.50;;;;;;;1.40;62.49;99589.27;103134;1277;138149;-65
2022/01/09 00:04:16;;;;;;;1.40;1.40;;;;;;;1.42;62.31;99582.10;103344;1277;108799;-67
2022/01/09 00:06:44;;;;;;;1.40;1.40;;;;;;;1.40;62.62;99578.95;103347;1278;136989;-64
2022/01/09 00:09:12;;;;;;;1.50;1.50;;;;;;;1.35;62.72;99573.35;103347;1277;94298;-65
2022/01/09 00:11:39;;;;;;;1.50;1.50;;;;;;;1.27;62.60;99571.45;103251;1277;94958;-66
2022/01/09 00:14:07;;;;;;;1.40;1.40;;;;;;;1.23;62.50;99566.92;103099;1277;138610;-65
2022/01/09 00:16:35;;;;;;;1.40;1.40;;;;;;;1.25;62.85;99566.56;103352;1278;108011;-66
2022/01/09 00:19:04;;;;;;;1.40;1.40;;;;;;;1.23;62.92;99564.64;103185;1277;137665;-65
2022/01/09 00:21:31;;;;;;;1.40;1.40;;;;;;;1.24;62.73;99569.19;103442;1277;95888;-66
2022/01/09 00:23:59;;;;;;;1.40;1.40;;;;;;;1.23;62.86;99568.49;103374;1277;138152;-65
2022/01/09 00:26:27;;;;;;;1.40;1.40;;;;;;;1.25;62.72;99565.16;103478;1278;108339;-64
2022/01/09 00:28:54;;;;;;;1.40;1.40;;;;;;;1.21;63.08;99562.90;103560;1277;94606;-64
2022/01/09 00:31:22;;;;;;;1.70;1.70;;;;;;;1.21;62.93;99562.20;103378;1277;137853;-66
2022/01/09 00:33:50;;;;;;;1.70;1.70;;;;;;;1.15;63.01;99558.89;103449;1277;108784;-65
2022/01/09 00:36:18;;;;;;;1.50;1.50;;;;;;;1.12;62.96;99557.48;103384;1277;138148;-66
2022/01/09 00:38:45;;;;;;;1.60;1.60;;;;;;;1.12;63.04;99554.16;103423;1277;94341;-65
2022/01/09 00:41:13;;;;;;;1.40;1.40;;;;;;;1.13;63.26;99552.77;103468;1277;94690;-66
2022/01/09 00:43:43;;;;;;;1.50;1.50;;;;;;;1.11;62.86;99553.64;103588;1277;138004;-65
2022/01/09 00:46:11;;;;;;;1.60;1.60;;;;;;;1.07;63.27;99544.74;103478;1278;108630;-66
2022/01/09 00:48:39;;;;;;;1.60;1.60;;;;;;;1.06;63.16;99546.14;103423;1277;138081;-65
2022/01/09 00:51:07;;;;;;;1.60;1.60;;;;;;;1.10;63.30;99547.36;103520;1277;95552;-67
2022/01/09 00:53:35;;;;;;;1.40;1.40;;;;;;;1.12;63.41;99541.06;103467;1277;108749;-66
2022/01/09 00:56:03;;;;;;;1.50;1.50;;;;;;;1.17;63.58;99538.08;103421;1277;139545;-65
2022/01/09 00:58:31;;;;;;;1.60;1.60;;;;;;;1.16;63.02;99534.23;103951;1277;94929;-66
2022/01/09 01:00:59;;;;;;;1.50;1.50;;;;;;;1.16;62.99;99534.93;103291;1277;140493;-67
2022/01/09 01:03:27;;;;;;;1.50;1.50;;;;;;;1.16;63.08;99530.57;103466;1277;108817;-66
2022/01/09 01:05:55;;;;;;;1.40;1.40;;;;;;;1.16;63.12;99524.98;103332;1278;138271;-66
2022/01/09 01:08:22;;;;;;;1.50;1.50;;;;;;;1.14;63.39;99521.30;103498;1277;94746;-66
2022/01/09 01:10:50;;;;;;;1.60;1.60;;;;;;;1.04;63.28;99518.52;103505;1277;94950;-66
2022/01/09 01:13:18;;;;;;;1.60;1.60;;;;;;;0.95;63.60;99522.04;103318;1277;138441;-66
2022/01/09 01:15:45;;;;;;;1.60;1.60;;;;;;;0.94;63.45;99518.70;103467;1277;109229;-66
2022/01/09 01:18:13;;;;;;;1.50;1.50;;;;;;;1.03;63.70;99513.45;103433;1277;138116;-66
2022/01/09 01:20:41;;;;;;;1.50;1.50;;;;;;;1.08;63.47;99510.83;103568;1278;95533;-66
2022/01/09 01:23:09;;;;;;;1.60;1.60;;;;;;;1.10;63.42;99502.77;103544;1277;108556;-66
2022/01/09 01:25:37;;;;;;;1.60;1.60;;;;;;;1.07;64.07;99503.14;103416;1277;137965;-64
2022/01/09 01:28:05;;;;;;;1.50;1.50;;;;;;;1.07;63.58;99495.44;103488;1278;95006;-65
2022/01/09 01:30:32;;;;;;;1.40;1.40;;;;;;;1.03;63.99;99497.90;103443;1277;137873;-66
2022/01/09 01:33:00;;;;;;;1.50;1.50;;;;;;;1.00;63.53;99494.57;103492;1278;109960;-65
2022/01/09 01:35:28;;;;;;;1.50;1.50;;;;;;;0.97;63.96;99490.40;103522;1277;108302;-64
2022/01/09 01:37:56;;;;;;;1.60;1.60;;;;;;;0.99;64.10;99487.41;103378;1277;137989;-66
2022/01/09 01:40:23;;;;;;;1.50;1.50;;;;;;;1.11;63.74;99484.94;103488;1277;94698;-66
2022/01/09 01:42:51;;;;;;;1.50;1.50;;;;;;;1.11;63.95;99480.21;103420;1277;137860;-66
2022/01/09 01:45:20;;;;;;;1.50;1.50;;;;;;;1.15;63.90;99479.51;103481;1277;108784;-64
2022/01/09 01:47:47;;;;;;;1.50;1.50;;;;;;;1.14;63.82;99474.09;103377;1277;138183;-66
2022/01/09 01:50:16;;;;;;;1.50;1.50;;;;;;;1.16;63.57;99473.91;103550;1277;94469;-66
2022/01/09 01:52:47;;;;;;;1.50;1.50;;;;;;;1.13;63.39;99469.91;103381;1277;108482;-66
2022/01/09 01:55:16;;;;;;;1.70;1.70;;;;;;;1.10;63.73;99475.86;103348;1279;137655;-67
2022/01/09 01:57:44;;;;;;;1.40;1.40;;;;;;;1.00;63.66;99472.91;103509;1277;94911;-65
2022/01/09 02:00:14;;;;;;;1.60;1.60;;;;;;;0.94;63.92;99473.44;103419;1277;137653;-67
2022/01/09 02:02:42;;;;;;;1.50;1.50;;;;;;;0.97;63.87;99472.58;103446;1278;109731;-67
2022/01/09 02:05:11;;;;;;;1.30;1.30;;;;;;;1.01;63.93;99469.41;103414;1277;106717;-66
2022/01/09 02:07:41;;;;;;;1.50;1.50;;;;;;;0.96;63.52;99468.90;103376;1277;137432;-66
2022/01/09 02:10:09;;;;;;;1.50;1.50;;;;;;;0.93;64.20;99470.66;103465;1277;94651;-66
2022/01/09 02:12:38;;;;;;;1.60;1.60;;;;;;;0.88;64.23;99468.55;103359;1277;138113;-66
2022/01/09 02:15:26;;;;;;;1.50;1.50;;;;;;;0.94;64.07;99465.41;103458;1277;110791;-66
2022/01/09 02:17:54;;;;;;;1.50;1.50;;;;;;;0.97;64.01;99465.92;103314;1277;140587;-66
2022/01/09 02:20:22;;;;;;;1.50;1.50;;;;;;;0.94;64.03;99457.54;103515;1277;97109;-67
2022/01/09 02:22:50;;;;;;;1.70;1.70;;;;;;;0.88;64.02;99451.44;103471;1277;108804;-66
2022/01/09 02:25:18;;;;;;;1.50;1.50;;;;;;;0.88;64.01;99448.65;103377;1277;138223;-65
2022/01/09 02:27:46;;;;;;;1.40;1.40;;;;;;;0.88;64.00;99444.63;103485;1277;95660;-64
2022/01/09 02:30:13;;;;;;;1.50;1.50;;;;;;;0.85;64.38;99435.72;103417;1277;138578;-65
2022/01/09 02:32:41;;;;;;;1.80;1.80;;;;;;;0.82;64.24;99430.66;103431;1277;107720;-66
2022/01/09 02:35:09;;;;;;;1.80;1.80;;;;;;;0.82;63.92;99431.36;103440;1277;109917;-66
2022/01/09 02:37:37;;;;;;;1.60;1.60;;;;;;;0.80;64.01;99433.46;103849;1277;139191;-64
2022/01/09 02:40:06;;;;;;;1.60;1.60;;;;;;;0.81;63.87;99440.97;103273;1277;95224;-66
2022/01/09 02:42:34;;;;;;;1.50;1.50;;;;;;;0.85;64.09;99433.98;103513;1277;137910;-67
2022/01/09 02:45:03;;;;;;;1.40;1.40;;;;;;;0.91;63.97;99436.75;103461;1277;108930;-66
2022/01/09 02:47:33;;;;;;;1.60;1.60;;;;;;;0.84;63.80;99430.31;103487;1277;95773;-66
2022/01/09 02:50:14;;;;;;;1.60;1.60;;;;;;;0.82;64.10;99427.88;103520;1277;138468;-66
2022/01/09 02:52:50;;;;;;;1.60;1.60;;;;;;;0.82;63.75;99426.48;103348;1277;108988;-65
2022/01/09 02:55:19;;;;;;;1.50;1.50;;;;;;;0.79;63.65;99428.39;103402;1277;137926;-66
2022/01/09 02:57:51;;;;;;;1.70;1.70;;;;;;;0.77;63.94;99423.86;103707;1277;95237;-64
2022/01/09 03:00:30;;;;;;;1.70;1.70;;;;;;;0.72;64.19;99415.30;103617;1277;138532;-64
2022/01/09 03:02:59;;;;;;;1.60;1.60;;;;;;;0.74;64.04;99411.45;104741;1277;109517;-66
2022/01/09 03:05:28;;;;;;;1.50;1.50;;;;;;;0.78;64.07;99411.10;103678;1278;110254;-65
2022/01/09 03:07:56;;;;;;;1.50;1.50;;;;;;;0.81;64.22;99413.89;103364;1277;138947;-66
2022/01/09 03:10:24;;;;;;;1.60;1.60;;;;;;;0.84;63.83;99410.55;103448;1277;95216;-65
2022/01/09 03:12:55;;;;;;;1.60;1.60;;;;;;;0.85;63.74;99410.04;103395;1277;137973;-66
2022/01/09 03:15:25;;;;;;;1.50;1.50;;;;;;;0.82;63.72;99406.36;103611;1277;109594;-66
2022/01/09 03:17:53;;;;;;;1.60;1.60;;;;;;;0.81;63.79;99404.11;103342;1277;138824;-64
2022/01/09 03:20:23;;;;;;;1.60;1.60;;;;;;;0.80;63.65;99400.96;103641;1277;95252;-67
2022/01/09 03:22:51;;;;;;;1.60;1.60;;;;;;;0.79;64.18;99400.27;103554;1277;108910;-66
2022/01/09 03:25:19;;;;;;;1.60;1.60;;;;;;;0.76;63.93;99399.58;103563;1277;138954;-65
2022/01/09 03:27:50;;;;;;;1.50;1.50;;;;;;;0.86;63.89;99398.67;103465;1277;95447;-64
2022/01/09 03:30:21;;;;;;;1.50;1.50;;;;;;;0.97;63.71;99404.05;103357;1278;139180;-66
2022/01/09 03:32:50;;;;;;;1.50;1.50;;;;;;;0.94;63.55;99404.07;103725;1277;108215;-67
2022/01/09 03:35:21;;;;;;;1.50;1.50;;;;;;;0.90;63.67;99402.33;103711;1278;109671;-65
2022/01/09 03:37:49;;;;;;;1.70;1.70;;;;;;;0.90;63.60;99397.61;104229;1277;138109;-65
2022/01/09 03:40:20;;;;;;;1.60;1.60;;;;;;;0.95;63.55;99400.21;103736;1277;95571;-63
2022/01/09 03:42:50;;;;;;;1.60;1.60;;;;;;;1.02;63.28;99399.49;103596;1277;138634;-66
2022/01/09 03:45:19;;;;;;;1.60;1.60;;;;;;;0.99;63.40;99398.98;103435;1277;110192;-66
2022/01/09 03:47:49;;;;;;;1.70;1.70;;;;;;;0.97;63.45;99399.51;103388;1277;138477;-66
2022/01/09 03:50:17;;;;;;;1.60;1.60;;;;;;;1.00;63.03;99398.11;103565;1278;96082;-65
2022/01/09 03:52:48;;;;;;;1.50;1.50;;;;;;;1.07;63.32;99399.48;103473;1277;109338;-69
2022/01/09 03:55:19;;;;;;;1.50;1.50;;;;;;;1.10;63.09;99400.16;103424;1277;138406;-66
2022/01/09 03:57:48;;;;;;;1.60;1.60;;;;;;;1.11;63.02;99407.15;103479;1277;95586;-66
2022/01/09 04:00:19;;;;;;;1.60;1.60;;;;;;;1.12;62.96;99403.30;103409;1277;137801;-66
2022/01/09 04:02:51;;;;;;;1.70;1.70;;;;;;;1.10;63.00;99406.45;103475;1279;108640;-66
2022/01/09 04:05:19;;;;;;;1.40;1.40;;;;;;;1.21;62.66;99407.12;103398;1277;109991;-66
2022/01/09 04:07:47;;;;;;;1.50;1.50;;;;;;;1.19;62.68;99405.73;103387;1277;137218;-67
2022/01/09 04:10:28;;;;;;;1.70;1.70;;;;;;;1.15;62.70;99406.43;103426;1277;95758;-67
2022/01/09 04:13:02;;;;;;;1.60;1.60;;;;;;;1.08;62.66;99404.71;103383;1278;138623;-66
2022/01/09 04:15:30;;;;;;;1.60;1.60;;;;;;;1.02;62.84;99404.02;103478;1277;110306;-66
2022/01/09 04:17:58;;;;;;;1.60;1.60;;;;;;;0.96;63.10;99403.34;103357;1277;138352;-67
2022/01/09 04:20:28;;;;;;;1.60;1.60;;;;;;;0.94;63.19;99406.51;103727;1277;95768;-65
2022/01/09 04:22:57;;;;;;;1.80;1.80;;;;;;;0.81;63.09;99403.94;103423;1277;108821;-65
2022/01/09 04:25:26;;;;;;;1.80;1.80;;;;;;;0.68;63.07;99403.95;103396;1277;138528;-67
2022/01/09 04:27:54;;;;;;;1.80;1.80;;;;;;;0.61;63.57;99402.23;103553;1277;96122;-64
2022/01/09 04:30:22;;;;;;;1.60;1.60;;;;;;;0.54;63.75;99400.84;103424;1277;138119;-66
2022/01/09 04:32:49;;;;;;;1.70;1.70;;;;;;;0.48;64.10;99395.44;103523;1277;110020;-66
2022/01/09 04:35:17;;;;;;;1.90;1.90;;;;;;;0.40;63.98;99398.42;103756;1277;108717;-66
2022/01/09 04:37:47;;;;;;;2.00;2.00;;;;;;;0.38;64.33;99403.84;103389;1277;139397;-65
2022/01/09 04:40:18;;;;;;;1.60;1.60;;;;;;;0.39;64.41;99398.08;103484;1277;95686;-65
2022/01/09 04:42:51;;;;;;;1.60;1.60;;;;;;;0.38;64.31;99395.46;103530;1277;138288;-65
2022/01/09 04:45:20;;;;;;;1.90;1.90;;;;;;;0.30;64.46;99395.46;103459;1277;109685;-65
2022/01/09 04:47:50;;;;;;;1.70;1.70;;;;;;;0.26;64.82;99392.33;103648;1277;139431;-67
2022/01/09 04:50:24;;;;;;;1.70;1.70;;;;;;;0.21;65.04;99389.71;103695;1277;96309;-66
2022/01/09 04:52:57;;;;;;;1.60;1.60;;;;;;;0.16;65.22;99387.09;103608;1277;108852;-66
2022/01/09 04:55:27;;;;;;;1.60;1.60;;;;;;;0.14;65.34;99384.66;103725;1277;138194;-67
2022/01/09 04:57:55;;;;;;;1.70;1.70;;;;;;;0.10;65.12;99381.16;103414;1277;95515;-66
2022/01/09 05:00:23;;;;;;;2.10;2.00;;;;;;;0.12;65.36;99384.30;103475;1277;139163;-67
2022/01/09 05:02:51;;;;;;;1.60;1.60;;;;;;;0.14;65.31;99379.06;103393;1277;108914;-65
2022/01/09 05:05:19;;;;;;;1.70;1.70;;;;;;;0.12;65.09;99379.07;103439;1278;110490;-64
2022/01/09 05:07:47;;;;;;;1.80;1.80;;;;;;;0.07;65.54;99373.84;103434;1277;137954;-67
2022/01/09 05:10:15;;;;;;;1.90;1.90;;;;;;;0.05;65.80;99371.92;103456;1277;95249;-68
2022/01/09 05:12:42;;;;;;;1.90;1.90;;;;;;;0.05;65.52;99369.30;103396;1277;138444;-67
2022/01/09 05:15:13;;;;;;;1.70;1.70;;;;;;;0.04;65.81;99368.95;103427;1278;109642;-67
2022/01/09 05:17:42;;;;;;;1.70;1.70;;;;;;;0.00;65.78;99370.52;103452;1277;95367;-67
2022/01/09 05:20:11;;;;;;;1.80;1.80;;;;;;;-0.06;65.89;99365.63;103839;1278;137781;-68
2022/01/09 05:22:38;;;;;;;2.00;2.00;;;;;;;-0.12;66.27;99366.86;103728;1277;107812;-63
2022/01/09 05:25:07;;;;;;;1.70;1.70;;;;;;;-0.11;66.19;99361.11;103352;1277;138616;-66
2022/01/09 05:27:36;;;;;;;2.30;2.20;;;;;;;-0.10;66.03;99360.94;103491;1277;95237;-66
2022/01/09 05:30:05;;;;;;;1.70;1.70;;;;;;;-0.16;66.59;99358.13;103555;1278;137984;-67
2022/01/09 05:32:33;;;;;;;1.80;1.80;;;;;;;-0.21;66.64;99358.98;103605;1278;108299;-65
2022/01/09 05:35:02;;;;;;;1.70;1.70;;;;;;;-0.21;66.44;99362.48;103471;1277;109735;-66
2022/01/09 05:37:29;;;;;;;1.60;1.60;;;;;;;-0.19;66.36;99357.09;103291;1277;138456;-67
2022/01/09 05:39:57;;;;;;;1.70;1.70;;;;;;;-0.17;66.56;99361.10;103542;1277;95766;-66
2022/01/09 05:42:25;;;;;;;1.70;1.70;;;;;;;-0.19;66.60;99358.13;103325;1277;138669;-67
2022/01/09 05:44:54;;;;;;;1.70;1.70;;;;;;;-0.22;66.38;99358.65;103471;1277;110007;-67
2022/01/09 05:47:22;;;;;;;1.70;1.70;;;;;;;-0.22;66.19;99361.45;103448;1277;95847;-67
2022/01/09 05:49:50;;;;;;;1.80;1.80;;;;;;;-0.22;66.51;99360.92;103399;1277;137799;-66
2022/01/09 05:52:18;;;;;;;1.80;1.80;;;;;;;-0.21;66.25;99359.00;103699;1277;108797;-64
2022/01/09 05:54:47;;;;;;;1.80;1.80;;;;;;;-0.17;66.03;99356.22;103360;1277;138453;-65
2022/01/09 05:57:15;;;;;;;1.70;1.70;;;;;;;-0.14;65.93;99354.13;103471;1277;95863;-68
2022/01/09 05:59:43;;;;;;;1.70;1.70;;;;;;;-0.19;66.01;99353.07;103418;1277;95745;-66
2022/01/09 06:02:10;;;;;;;1.80;1.80;;;;;;;-0.27;66.16;99348.02;103373;1277;138209;-66
2022/01/09 06:04:38;;;;;;;1.90;1.90;;;;;;;-0.30;66.06;99347.83;103468;1278;109498;-67
2022/01/09 06:07:06;;;;;;;2.20;2.10;;;;;;;-0.33;65.97;99348.18;103304;1277;139014;-67
2022/01/09 06:09:34;;;;;;;2.00;2.00;;;;;;;-0.37;66.42;99343.99;103515;1277;95796;-67
2022/01/09 06:12:02;;;;;;;1.80;1.80;;;;;;;-0.38;66.27;99350.09;103301;1277;138080;-64
2022/01/09 06:14:29;;;;;;;2.00;2.00;;;;;;;-0.40;66.29;99351.83;103473;1277;109656;-65
2022/01/09 06:16:57;;;;;;;1.90;1.90;;;;;;;-0.44;66.46;99349.73;103412;1277;95806;-65
2022/01/09 06:19:25;;;;;;;2.00;2.00;;;;;;;-0.44;66.34;99351.83;103425;1277;138545;-67
2022/01/09 06:21:52;;;;;;;1.90;1.90;;;;;;;-0.41;65.98;99346.25;103464;1277;107381;-67
2022/01/09 06:24:20;;;;;;;2.00;2.00;;;;;;;-0.37;66.23;99349.91;103428;1277;138197;-67
2022/01/09 06:26:48;;;;;;;1.90;1.90;;;;;;;-0.44;66.04;99351.66;103491;1277;95254;-66
2022/01/09 06:29:16;;;;;;;1.90;1.90;;;;;;;-0.49;66.13;99353.39;103561;1277;96102;-66
2022/01/09 06:31:47;;;;;;;2.00;2.00;;;;;;;-0.44;65.95;99350.95;103390;1277;138587;-67
2022/01/09 06:34:15;;;;;;;1.80;1.80;;;;;;;-0.36;65.73;99348.88;103458;1277;108478;-67
2022/01/09 06:36:43;;;;;;;1.80;1.80;;;;;;;-0.37;65.45;99356.72;103340;1277;137963;-68
2022/01/09 06:39:10;;;;;;;2.50;2.40;;;;;;;-0.46;65.54;99359.33;103488;1278;95245;-68
2022/01/09 06:41:38;;;;;;;2.00;2.00;;;;;;;-0.52;65.80;99358.79;103526;1278;108997;-66
2022/01/09 06:44:06;;;;;;;1.80;1.80;;;;;;;-0.54;65.54;99364.20;103324;1277;138199;-65
2022/01/09 06:46:34;;;;;;;1.90;1.90;;;;;;;-0.54;65.50;99364.02;103538;1278;96250;-66
2022/01/09 06:49:02;;;;;;;1.90;1.90;;;;;;;-0.55;65.73;99363.50;103357;1277;137845;-64
2022/01/09 06:51:30;;;;;;;1.90;1.90;;;;;;;-0.58;65.56;99368.19;103462;1277;109007;-65
2022/01/09 06:53:58;;;;;;;1.90;1.90;;;;;;;-0.61;65.52;99366.62;103399;1277;139259;-67
2022/01/09 06:56:26;;;;;;;1.90;1.90;;;;;;;-0.56;65.60;99364.89;103555;1277;95262;-67
2022/01/09 06:58:54;;;;;;;1.90;1.90;;;;;;;-0.48;65.47;99363.51;103532;1277;95705;-66
2022/01/09 07:01:21;;;;;;;2.00;2.00;;;;;;;-0.48;65.24;99365.42;103389;1278;138376;-68
2022/01/09 07:03:49;;;;;;;2.20;2.10;;;;;;;-0.49;65.30;99367.34;103430;1277;109886;-66
2022/01/09 07:06:17;;;;;;;1.90;1.90;;;;;;;-0.45;65.38;99369.79;103379;1277;138906;-66
2022/01/09 07:08:45;;;;;;;1.90;1.90;;;;;;;-0.38;64.98;99372.41;103509;1277;96579;-67
2022/01/09 07:11:13;;;;;;;2.00;2.00;;;;;;;-0.38;64.97;99371.20;103487;1277;107643;-67
2022/01/09 07:13:41;;;;;;;1.90;1.90;;;;;;;-0.39;64.74;99378.52;103530;1277;137992;-66
2022/01/09 07:16:09;;;;;;;2.00;2.00;;;;;;;-0.43;64.74;99378.34;103503;1277;95245;-67
2022/01/09 07:18:37;;;;;;;1.90;1.90;;;;;;;-0.46;64.75;99381.65;103247;1277;139225;-64
2022/01/09 07:21:04;;;;;;;2.00;2.00;;;;;;;-0.46;64.84;99382.35;103524;1277;108384;-68
2022/01/09 07:23:32;;;;;;;2.00;2.00;;;;;;;-0.43;64.59;99386.02;103321;1277;109733;-67
2022/01/09 07:26:00;;;;;;;1.90;1.90;;;;;;;-0.39;64.36;99388.09;103372;1277;138771;-67
2022/01/09 07:28:28;;;;;;;1.80;1.80;;;;;;;-0.39;64.47;99387.59;103466;1279;96074;-68
2022/01/09 07:30:56;;;;;;;1.70;1.70;;;;;;;-0.35;63.92;99388.64;103415;1277;138097;-67
2022/01/09 07:33:24;;;;;;;2.30;2.20;;;;;;;-0.38;64.21;99386.71;103482;1277;109784;-67
2022/01/09 07:35:51;;;;;;;1.90;1.90;;;;;;;-0.39;64.10;99383.40;103463;1277;137890;-67
2022/01/09 07:38:19;;;;;;;2.20;2.10;;;;;;;-0.44;64.25;99382.34;103557;1277;95667;-67
2022/01/09 07:40:47;;;;;;;2.30;2.20;;;;;;;-0.46;64.28;99383.04;103482;1279;109420;-68
2022/01/09 07:43:15;;;;;;;1.80;1.80;;;;;;;-0.44;63.95;99382.52;103511;1278;138370;-67
2022/01/09 07:45:43;;;;;;;1.70;1.70;;;;;;;-0.40;64.37;99383.58;103452;1279;95776;-67
2022/01/09 07:48:10;;;;;;;1.80;1.80;;;;;;;-0.43;63.97;99385.84;103445;1277;140294;-67
2022/01/09 07:50:38;;;;;;;1.90;1.90;;;;;;;-0.52;63.89;99385.48;103512;1277;108808;-67
2022/01/09 07:53:06;;;;;;;1.90;1.90;;;;;;;-0.50;64.12;99386.86;103510;1278;110604;-68
2022/01/09 07:55:34;;;;;;;1.90;1.90;;;;;;;-0.46;64.25;99380.95;103376;1278;138203;-67
2022/01/09 07:58:02;;;;;;;1.90;1.90;;;;;;;-0.48;63.89;99379.20;103511;1277;99088;-68
2022/01/09 08:00:30;;;;;;;2.10;2.00;;;;;;;-0.54;63.95;99377.45;103404;1278;138350;-65
2022/01/09 08:02:57;;;;;;;1.90;1.90;;;;;;;-0.56;64.08;99377.79;103485;1278;109737;-65
2022/01/09 08:05:25;;;;;;;2.20;2.10;;;;;;;-0.55;64.06;99379.19;103560;1278;95580;-67
2022/01/09 08:07:53;;;;;;;1.90;1.90;;;;;;;-0.49;64.20;99379.55;103377;1277;139204;-68
2022/01/09 08:10:24;;;;;;;1.90;1.90;;;;;;;-0.43;63.85;99379.56;103595;1278;107274;-67
2022/01/09 08:12:52;;;;;;;1.90;1.90;;;;;;;-0.36;63.78;99378.69;103416;1279;138508;-65
2022/01/09 08:15:20;;;;;;;2.00;2.00;;;;;;;-0.32;63.91;99382.37;103447;1277;97066;-66
2022/01/09 08:17:49;;;;;;;1.70;1.70;;;;;;;-0.29;63.64;99376.61;103606;1278;97495;-66
2022/01/09 08:20:17;;;;;;;1.80;1.80;;;;;;;-0.27;63.37;99378.88;103424;1278;138674;-67
2022/01/09 08:22:45;;;;;;;1.90;1.90;;;;;;;-0.19;63.63;99380.11;103502;1278;109703;-68
2022/01/09 08:25:14;;;;;;;1.80;1.80;;;;;;;-0.14;63.21;99377.84;103389;1279;139247;-66
2022/01/09 08:27:43;;;;;;;1.90;1.90;;;;;;;-0.15;63.11;99383.43;103733;1277;95583;-67
2022/01/09 08:30:13;;;;;;;1.70;1.70;;;;;;;-0.12;63.33;99385.69;103841;1278;138327;-68
2022/01/09 08:32:42;;;;;;;1.70;1.70;;;;;;;0.02;62.96;99388.31;103478;1280;109073;-66
2022/01/09 08:35:10;;;;;;;1.70;1.70;;;;;;;0.11;62.60;99389.02;103638;1280;95575;-67
2022/01/09 08:37:42;;;;;;;1.80;1.80;;;;;;;0.16;62.37;99388.49;103465;1277;137891;-65
2022/01/09 08:40:17;;;;;;;1.80;1.80;;;;;;;0.18;62.69;99394.06;103408;1277;108832;-66
2022/01/09 08:42:46;;;;;;;1.80;1.80;;;;;;;0.23;62.34;99390.75;104036;1278;138189;-67
2022/01/09 08:45:14;;;;;;;1.70;1.70;;;;;;;0.25;62.23;99389.89;103649;1280;96892;-67
2022/01/09 08:47:43;;;;;;;1.70;1.70;;;;;;;0.29;62.29;99390.23;103606;1278;96076;-67
2022/01/09 08:50:13;;;;;;;1.70;1.70;;;;;;;0.37;62.18;99388.48;103673;1278;138035;-69
2022/01/09 08:52:41;;;;;;;1.70;1.70;;;;;;;0.50;62.35;99384.79;103474;1278;108022;-66
2022/01/09 08:55:09;;;;;;;1.70;1.70;;;;;;;0.64;61.82;99383.02;103231;1278;139132;-65
2022/01/09 08:57:37;;;;;;;1.60;1.60;;;;;;;0.80;61.34;99387.51;103428;1278;97090;-68
2022/01/09 09:00:05;;;;;;;1.50;1.50;;;;;;;0.88;61.15;99387.66;103248;1279;136875;-67
2022/01/09 09:02:33;;;;;;;1.50;1.50;;;;;;;0.92;61.41;99384.67;103570;1279;110372;-67
2022/01/09 09:05:01;;;;;;;1.50;1.50;;;;;;;0.99;61.17;99387.09;103615;1280;95213;-67
2022/01/09 09:07:29;;;;;;;1.50;1.50;;;;;;;1.07;61.24;99387.41;103429;1278;137694;-67
2022/01/09 09:10:03;;;;;;;1.40;1.40;;;;;;;1.26;60.60;99389.44;103392;1279;107829;-67
2022/01/09 09:12:32;;;;;;;1.40;1.40;;;;;;;1.27;60.14;99390.99;103498;1278;138662;-67
2022/01/09 09:15:03;;;;;;;1.60;1.60;;;;;;;1.30;60.53;99396.58;103653;1278;95244;-69
2022/01/09 09:17:32;;;;;;;1.40;1.40;;;;;;;1.58;60.51;99398.01;103921;1278;95243;-68
2022/01/09 09:20:00;;;;;;;1.50;1.50;;;;;;;1.81;59.61;99392.77;103339;1277;138922;-68
2022/01/09 09:22:28;;;;;;;1.50;1.50;;;;;;;1.73;59.60;99398.44;103430;1280;109835;-67
2022/01/09 09:24:56;;;;;;;1.70;1.70;;;;;;;2.01;59.41;99397.71;103780;1278;137764;-68
2022/01/09 09:27:30;;;;;;;1.60;1.60;;;;;;;3.14;57.33;99389.17;103481;1278;95317;-67
2022/01/09 09:29:59;;;;;;;1.30;1.30;;;;;;;5.22;51.38;99380.12;103417;1280;138807;-67
2022/01/09 09:32:27;;;;;;;0.90;0.90;;;;;;;6.80;48.51;99374.26;103443;1278;109749;-67
2022/01/09 09:34:55;;;;;;;0.70;0.70;;;;;;;8.06;45.78;99369.14;103642;1278;95339;-67
2022/01/09 09:37:26;;;;;;;0.60;0.60;;;;;;;7.84;44.56;99368.25;103394;1277;138892;-66
2022/01/09 09:39:54;;;;;;;0.60;0.60;;;;;;;7.28;45.19;99371.17;103473;1279;108885;-67
2022/01/09 09:42:21;;;;;;;0.60;0.60;;;;;;;7.10;46.59;99371.69;103362;1278;138343;-66
2022/01/09 09:44:49;;;;;;;0.60;0.60;;;;;;;8.19;45.40;99371.70;103360;1280;95220;-65
2022/01/09 09:47:19;;;;;;;0.40;0.40;;;;;;;9.01;42.83;99366.45;103361;1277;95291;-66
2022/01/09 09:49:48;;;;;;;0.50;0.50;;;;;;;8.66;42.31;99364.63;103341;1277;137949;-66
2022/01/09 09:52:18;;;;;;;0.50;0.50;;;;;;;8.01;44.29;99365.39;103343;1278;109718;-64
2022/01/09 09:54:48;;;;;;;0.50;0.50;;;;;;;7.76;43.52;99367.41;103731;1277;138260;-66
2022/01/09 09:57:16;;;;;;;0.60;0.60;;;;;;;7.12;44.42;99369.67;103477;1280;95380;-67
2022/01/09 09:59:45;;;;;;;0.60;0.60;;;;;;;6.30;46.03;99374.00;103509;1278;108843;-66
2022/01/09 10:02:17;;;;;;;0.70;0.70;;;;;;;5.51;47.50;99376.02;103017;1277;137655;-66
2022/01/09 10:04:57;;;;;;;0.80;0.80;;;;;;;4.97;49.51;99374.88;103414;1277;95214;-65
2022/01/09 10:07:26;;;;;;;0.80;0.80;;;;;;;4.64;50.64;99369.88;103210;1280;137951;-67
2022/01/09 10:10:00;;;;;;;1.00;1.00;;;;;;;4.44;51.40;99367.41;103365;1280;141003;-66
2022/01/09 10:12:31;;;;;;;0.90;0.90;;;;;;;4.16;51.58;99370.90;103322;1277;109684;-64
2022/01/09 10:15:01;;;;;;;1.00;1.00;;;;;;;3.67;52.46;99366.92;103632;1277;97034;-67
2022/01/09 10:17:30;;;;;;;1.00;1.00;;;;;;;3.31;53.87;99366.02;103251;1278;137944;-66
2022/01/09 10:20:20;;;;;;;1.10;1.10;;;;;;;3.21;54.65;99368.27;103387;1278;109291;-67
2022/01/09 10:22:48;;;;;;;1.20;1.20;;;;;;;3.04;54.84;99365.50;103398;1280;137811;-67
2022/01/09 10:25:17;;;;;;;1.20;1.20;;;;;;;2.97;55.14;99362.60;103528;1280;95450;-66
2022/01/09 10:27:46;;;;;;;1.20;1.20;;;;;;;2.88;55.82;99358.33;103461;1277;139711;-68
2022/01/09 10:30:14;;;;;;;1.20;1.20;;;;;;;2.80;56.26;99361.92;103473;1279;108891;-64
2022/01/09 10:32:42;;;;;;;1.20;1.20;;;;;;;2.74;56.06;99361.80;103294;1278;110236;-67
2022/01/09 10:35:13;;;;;;;1.30;1.30;;;;;;;2.59;56.53;99360.74;103306;1278;137877;-67
2022/01/09 10:37:49;;;;;;;1.30;1.30;;;;;;;2.66;56.95;99357.00;103577;1278;95250;-66
2022/01/09 10:40:22;;;;;;;1.40;1.40;;;;;;;3.06;56.56;99352.82;103456;1278;137750;-67
2022/01/09 10:43:14;;;;;;;1.00;1.00;;;;;;;3.73;54.58;99346.11;103644;1277;108874;-66
2022/01/09 10:45:46;;;;;;;1.10;1.10;;;;;;;3.78;53.99;99344.98;103328;1278;138446;-68
2022/01/09 10:48:20;;;;;;;1.10;1.10;;;;;;;3.50;54.38;99341.36;105504;1278;95223;-66
2022/01/09 10:50:49;;;;;;;1.20;1.20;;;;;;;3.30;54.67;99343.58;103478;1278;108560;-68
2022/01/09 10:53:18;;;;;;;1.20;1.20;;;;;;;3.17;55.11;99337.45;103300;1277;137925;-67
2022/01/09 10:56:14;;;;;;;1.40;1.40;;;;;;;3.16;55.70;99331.84;103438;1278;95646;-65
2022/01/09 10:58:45;;;;;;;1.20;1.20;;;;;;;3.24;56.10;99332.97;103646;1278;137628;-67
2022/01/09 11:01:16;;;;;;;1.10;1.10;;;;;;;3.29;55.59;99329.04;103100;1277;107787;-66
2022/01/09 11:03:48;;;;;;;1.00;1.00;;;;;;;3.32;55.30;99328.82;102930;1278;138097;-66
2022/01/09 11:06:17;;;;;;;1.20;1.20;;;;;;;3.23;55.02;99323.33;103133;1278;96022;-67
2022/01/09 11:08:46;;;;;;;1.10;1.10;;;;;;;3.15;55.31;99323.27;103255;1278;95150;-66
2022/01/09 11:13:51;;;;;;;1.10;1.10;;;;;;;3.14;56.11;99322.04;103265;1277;109394;-67
2022/01/09 11:16:32;;;;;;;1.30;1.30;;;;;;;3.14;55.91;99325.03;103208;1277;137955;-66
2022/01/09 11:19:01;;;;;;;1.20;1.20;;;;;;;3.09;56.46;99323.70;103916;1277;95217;-67
2022/01/09 11:21:29;;;;;;;1.20;1.20;;;;;;;3.14;56.74;99320.48;103463;1278;108099;-66
2022/01/09 11:24:26;;;;;;;1.20;1.20;;;;;;;3.19;56.42;99316.02;103241;1277;137712;-66
2022/01/09 11:27:12;;;;;;;1.10;1.10;;;;;;;3.15;55.67;99318.52;103414;1278;95638;-66
2022/01/09 11:30:00;;;;;;;1.30;1.30;;;;;;;3.06;55.82;99316.90;103343;1280;138131;-66
2022/01/09 11:32:56;;;;;;;1.30;1.30;;;;;;;2.99;55.90;99315.07;103215;1280;110101;-65
2022/01/09 11:35:46;;;;;;;1.30;1.30;;;;;;;3.00;56.21;99313.65;103150;1280;137993;-67
2022/01/09 11:38:16;;;;;;;1.30;1.30;;;;;;;3.04;56.03;99310.26;103251;1280;95652;-65